createdAt,value
2023-02-01T00:00:03.791Z,0.00
2023-02-01T00:01:03.778Z,0.00
2023-02-01T00:02:03.835Z,0.00
2023-02-01T00:03:03.728Z,0.00
2023-02-01T00:04:03.740Z,0.00
2023-02-01T00:05:03.747Z,0.00
2023-02-01T00:06:03.719Z,0.00
2023-02-01T00:07:03.743Z,0.00
2023-02-01T00:08:03.699Z,0.00
2023-02-01T00:09:03.694Z,0.00
2023-02-01T00:10:03.709Z,0.00
2023-02-01T00:11:03.686Z,0.00
2023-02-01T00:12:03.712Z,0.00
2023-02-01T00:13:03.674Z,0.00
2023-02-01T00:14:03.670Z,0.00
2023-02-01T00:15:03.680Z,0.00
2023-02-01T00:16:03.699Z,0.00
2023-02-01T00:17:03.687Z,0.00
2023-02-01T00:18:03.681Z,0.00
2023-02-01T00:19:03.703Z,0.00
2023-02-01T00:20:03.646Z,0.00
2023-02-01T00:21:03.634Z,0.00
2023-02-01T00:22:03.633Z,0.00
2023-02-01T00:23:03.609Z,0.00
2023-02-01T00:24:03.649Z,0.00
2023-02-01T00:25:03.610Z,0.00
2023-02-01T00:26:03.620Z,0.00
2023-02-01T00:27:03.598Z,0.00
2023-02-01T00:28:03.614Z,0.00
2023-02-01T00:29:03.631Z,0.00
2023-02-01T00:30:03.571Z,0.00
2023-02-01T00:31:03.650Z,0.00
2023-02-01T00:32:03.663Z,0.00
2023-02-01T00:33:03.570Z,0.00
2023-02-01T00:34:03.544Z,0.00
2023-02-01T00:35:03.565Z,0.00
2023-02-01T00:36:03.552Z,0.00
2023-02-01T00:37:03.522Z,0.00
2023-02-01T00:38:03.536Z,0.00
2023-02-01T00:39:03.541Z,0.00
2023-02-01T00:40:03.543Z,0.00
2023-02-01T00:41:03.487Z,0.00
2023-02-01T00:42:03.479Z,0.00
2023-02-01T00:43:03.480Z,0.00
2023-02-01T00:44:03.474Z,0.00
2023-02-01T00:45:03.534Z,0.00
2023-02-01T00:46:03.492Z,0.00
2023-02-01T00:47:03.464Z,0.00
2023-02-01T00:48:03.436Z,0.00
2023-02-01T00:49:03.450Z,0.00
2023-02-01T00:50:03.446Z,0.00
2023-02-01T00:51:03.460Z,0.00
2023-02-01T00:52:03.433Z,0.00
2023-02-01T00:53:03.423Z,0.00
2023-02-01T00:54:03.429Z,0.00
2023-02-01T00:55:03.404Z,0.00
2023-02-01T00:56:03.443Z,0.00
2023-02-01T00:57:03.452Z,0.00
2023-02-01T00:58:03.383Z,0.00
2023-02-01T00:59:03.371Z,0.00
2023-02-01T01:00:03.360Z,0.00
2023-02-01T01:01:03.426Z,0.00
2023-02-01T01:02:03.391Z,0.00
2023-02-01T01:03:03.352Z,0.00
2023-02-01T01:04:04.345Z,0.00
2023-02-01T01:05:03.349Z,0.00
2023-02-01T01:06:03.358Z,0.00
2023-02-01T01:07:03.355Z,0.00
2023-02-01T01:08:03.350Z,0.00
2023-02-01T01:09:03.318Z,0.00
2023-02-01T01:10:03.308Z,0.00
2023-02-01T01:11:03.354Z,0.00
2023-02-01T01:12:03.379Z,0.00
2023-02-01T01:13:03.284Z,0.00
2023-02-01T01:14:03.285Z,0.00
2023-02-01T01:15:03.299Z,0.00
2023-02-01T01:16:03.306Z,0.00
2023-02-01T01:17:03.338Z,0.00
2023-02-01T01:18:03.232Z,0.00
2023-02-01T01:19:03.235Z,0.00
2023-02-01T01:20:03.243Z,0.00
2023-02-01T01:21:03.214Z,0.00
2023-02-01T01:22:03.241Z,0.00
2023-02-01T01:23:03.200Z,0.00
2023-02-01T01:24:03.262Z,0.00
2023-02-01T01:25:03.193Z,0.00
2023-02-01T01:26:03.198Z,0.00
2023-02-01T01:27:04.179Z,0.00
2023-02-01T01:28:03.225Z,0.00
2023-02-01T01:29:03.179Z,0.00
2023-02-01T01:30:03.200Z,0.00
2023-02-01T01:31:03.218Z,0.00
2023-02-01T01:32:03.173Z,0.00
2023-02-01T01:33:03.166Z,0.00
2023-02-01T01:34:03.154Z,0.00
2023-02-01T01:35:04.181Z,0.00
2023-02-01T01:36:03.124Z,0.00
2023-02-01T01:37:03.158Z,0.00
2023-02-01T01:38:03.195Z,0.00
2023-02-01T01:39:03.138Z,0.00
2023-02-01T01:40:03.161Z,0.00
2023-02-01T01:41:03.099Z,0.00
2023-02-01T01:42:03.095Z,0.00
2023-02-01T01:43:03.092Z,0.00
2023-02-01T01:44:03.110Z,0.00
2023-02-01T01:45:03.079Z,0.00
2023-02-01T01:46:03.064Z,0.00
2023-02-01T01:47:03.142Z,0.00
2023-02-01T01:48:03.061Z,0.00
2023-02-01T01:49:03.112Z,0.00
2023-02-01T01:50:03.029Z,0.00
2023-02-01T01:51:03.045Z,0.00
2023-02-01T01:52:03.033Z,0.00
2023-02-01T01:53:03.046Z,0.00
2023-02-01T01:54:02.998Z,0.00
2023-02-01T01:55:03.019Z,0.00
2023-02-01T01:56:03.015Z,0.00
2023-02-01T01:57:03.006Z,0.00
2023-02-01T01:58:03.010Z,0.00
2023-02-01T01:59:02.956Z,0.00
2023-02-01T02:00:02.960Z,0.00
2023-02-01T02:01:03.039Z,0.00
2023-02-01T02:02:03.039Z,0.00
2023-02-01T02:03:02.990Z,0.00
2023-02-01T02:04:02.929Z,0.00
2023-02-01T02:05:02.953Z,0.00
2023-02-01T02:06:02.918Z,0.00
2023-02-01T02:07:02.941Z,0.00
2023-02-01T02:08:02.950Z,0.00
2023-02-01T02:09:04.718Z,0.00
2023-02-01T02:10:02.906Z,0.00
2023-02-01T02:11:02.907Z,0.00
2023-02-01T02:12:02.891Z,0.00
2023-02-01T02:13:02.919Z,0.00
2023-02-01T02:14:02.889Z,0.00
2023-02-01T02:15:02.856Z,0.00
2023-02-01T02:16:02.931Z,0.00
2023-02-01T02:17:02.853Z,0.00
2023-02-01T02:18:02.875Z,0.00
2023-02-01T02:19:02.837Z,0.00
2023-02-01T02:20:02.882Z,0.00
2023-02-01T02:21:02.828Z,0.00
2023-02-01T02:22:02.809Z,0.00
2023-02-01T02:23:02.888Z,0.00
2023-02-01T02:24:02.810Z,0.00
2023-02-01T02:25:02.816Z,0.00
2023-02-01T02:26:02.788Z,0.00
2023-02-01T02:27:02.785Z,0.00
2023-02-01T02:28:02.807Z,0.00
2023-02-01T02:29:02.802Z,0.00
2023-02-01T02:30:02.788Z,0.00
2023-02-01T02:31:02.794Z,0.00
2023-02-01T02:32:02.775Z,0.00
2023-02-01T02:33:02.730Z,0.00
2023-02-01T02:34:02.822Z,0.00
2023-02-01T02:35:02.770Z,0.00
2023-02-01T02:36:02.735Z,0.00
2023-02-01T02:37:02.748Z,0.00
2023-02-01T02:38:02.711Z,0.00
2023-02-01T02:39:02.706Z,0.00
2023-02-01T02:40:02.689Z,0.00
2023-02-01T02:41:02.691Z,0.00
2023-02-01T02:42:02.770Z,0.00
2023-02-01T02:43:02.683Z,0.00
2023-02-01T02:44:02.701Z,0.00
2023-02-01T02:45:02.673Z,0.00
2023-02-01T02:46:02.734Z,0.00
2023-02-01T02:47:02.707Z,0.00
2023-02-01T02:48:02.638Z,0.00
2023-02-01T02:49:02.639Z,0.00
2023-02-01T02:50:03.630Z,0.00
2023-02-01T02:51:02.665Z,0.00
2023-02-01T02:52:03.605Z,0.00
2023-02-01T02:53:02.613Z,0.00
2023-02-01T02:54:02.611Z,0.00
2023-02-01T02:55:02.627Z,0.00
2023-02-01T02:56:02.628Z,0.00
2023-02-01T02:57:02.604Z,0.00
2023-02-01T02:58:02.578Z,0.00
2023-02-01T02:59:02.625Z,0.00
2023-02-01T03:00:02.594Z,0.00
2023-02-01T03:01:02.620Z,0.00
2023-02-01T03:02:02.543Z,0.00
2023-02-01T03:03:02.603Z,0.00
2023-02-01T03:04:02.532Z,0.00
2023-02-01T03:05:02.616Z,0.00
2023-02-01T03:06:02.573Z,0.00
2023-02-01T03:07:02.535Z,0.00
2023-02-01T03:08:02.582Z,0.00
2023-02-01T03:09:02.506Z,0.00
2023-02-01T03:10:02.509Z,0.00
2023-02-01T03:11:02.488Z,0.00
2023-02-01T03:12:02.610Z,0.00
2023-02-01T03:13:02.533Z,0.00
2023-02-01T03:14:02.530Z,0.00
2023-02-01T03:15:02.475Z,0.00
2023-02-01T03:16:02.489Z,0.00
2023-02-01T03:17:02.465Z,0.00
2023-02-01T03:18:02.469Z,0.00
2023-02-01T03:19:02.497Z,0.00
2023-02-01T03:20:02.438Z,0.00
2023-02-01T03:21:02.428Z,0.00
2023-02-01T03:22:02.471Z,0.00
2023-02-01T03:23:02.421Z,0.00
2023-02-01T03:24:02.437Z,0.00
2023-02-01T03:25:02.427Z,0.00
2023-02-01T03:26:02.396Z,0.00
2023-02-01T03:27:02.432Z,0.00
2023-02-01T03:28:02.409Z,0.00
2023-02-01T03:29:02.376Z,0.00
2023-02-01T03:30:02.398Z,0.00
2023-02-01T03:31:02.534Z,0.00
2023-02-01T03:32:02.426Z,0.00
2023-02-01T03:33:02.392Z,0.00
2023-02-01T03:34:02.357Z,0.00
2023-02-01T03:35:02.347Z,0.00
2023-02-01T03:36:02.349Z,0.00
2023-02-01T03:37:02.411Z,0.00
2023-02-01T03:38:02.326Z,0.00
2023-02-01T03:39:02.354Z,0.00
2023-02-01T03:40:02.314Z,0.00
2023-02-01T03:41:02.340Z,0.00
2023-02-01T03:42:02.299Z,0.00
2023-02-01T03:43:02.287Z,0.00
2023-02-01T03:44:02.353Z,0.00
2023-02-01T03:45:02.298Z,0.00
2023-02-01T03:46:02.366Z,0.00
2023-02-01T03:47:02.258Z,0.00
2023-02-01T03:48:02.277Z,0.00
2023-02-01T03:49:02.306Z,0.00
2023-02-01T03:50:02.255Z,0.00
2023-02-01T03:51:02.243Z,0.00
2023-02-01T03:52:02.273Z,0.00
2023-02-01T03:53:02.260Z,0.00
2023-02-01T03:54:02.216Z,0.00
2023-02-01T03:55:02.236Z,0.00
2023-02-01T03:56:02.243Z,0.00
2023-02-01T03:57:02.203Z,0.00
2023-02-01T03:58:02.242Z,0.00
2023-02-01T03:59:02.191Z,0.00
2023-02-01T04:00:02.200Z,0.00
2023-02-01T04:01:02.277Z,0.00
2023-02-01T04:02:02.272Z,0.00
2023-02-01T04:03:02.206Z,0.00
2023-02-01T04:04:02.189Z,0.00
2023-02-01T04:05:02.140Z,0.00
2023-02-01T04:06:02.125Z,0.00
2023-02-01T04:07:02.140Z,0.00
2023-02-01T04:08:02.208Z,0.00
2023-02-01T04:09:02.146Z,0.00
2023-02-01T04:10:02.134Z,0.00
2023-02-01T04:11:02.153Z,0.00
2023-02-01T04:12:02.097Z,0.00
2023-02-01T04:13:02.115Z,0.00
2023-02-01T04:14:02.101Z,0.00
2023-02-01T04:15:02.119Z,0.00
2023-02-01T04:16:02.151Z,0.00
2023-02-01T04:17:02.151Z,0.00
2023-02-01T04:18:02.067Z,0.00
2023-02-01T04:19:02.060Z,0.00
2023-02-01T04:20:02.075Z,0.00
2023-02-01T04:21:02.060Z,0.00
2023-02-01T04:22:02.059Z,0.00
2023-02-01T04:23:02.061Z,0.00
2023-02-01T04:24:02.032Z,0.00
2023-02-01T04:25:02.012Z,0.00
2023-02-01T04:26:02.017Z,0.00
2023-02-01T04:27:02.162Z,0.00
2023-02-01T04:28:02.003Z,0.00
2023-02-01T04:29:01.996Z,0.00
2023-02-01T04:30:02.005Z,0.00
2023-02-01T04:31:02.059Z,0.00
2023-02-01T04:32:02.038Z,0.00
2023-02-01T04:33:02.012Z,0.00
2023-02-01T04:34:02.024Z,0.00
2023-02-01T04:35:01.972Z,0.00
2023-02-01T04:36:01.986Z,0.00
2023-02-01T04:37:01.944Z,0.00
2023-02-01T04:38:01.937Z,0.00
2023-02-01T04:39:01.998Z,0.00
2023-02-01T04:40:01.929Z,0.00
2023-02-01T04:41:01.992Z,0.00
2023-02-01T04:42:01.935Z,0.00
2023-02-01T04:43:01.952Z,0.00
2023-02-01T04:44:01.978Z,0.00
2023-02-01T04:45:01.969Z,0.00
2023-02-01T04:46:01.904Z,0.00
2023-02-01T04:47:01.901Z,0.00
2023-02-01T04:48:01.889Z,0.00
2023-02-01T04:49:01.868Z,0.00
2023-02-01T04:50:01.931Z,0.00
2023-02-01T04:51:01.860Z,0.00
2023-02-01T04:52:01.898Z,0.00
2023-02-01T04:53:01.863Z,0.00
2023-02-01T04:54:01.849Z,0.00
2023-02-01T04:55:01.859Z,0.00
2023-02-01T04:56:01.832Z,0.00
2023-02-01T04:57:01.866Z,0.00
2023-02-01T04:58:01.811Z,0.00
2023-02-01T04:59:01.807Z,0.00
2023-02-01T05:00:01.895Z,0.00
2023-02-01T05:01:01.852Z,0.00
2023-02-01T05:02:01.813Z,0.00
2023-02-01T05:03:01.846Z,0.00
2023-02-01T05:04:01.769Z,0.00
2023-02-01T05:05:01.803Z,0.00
2023-02-01T05:06:01.777Z,0.00
2023-02-01T05:07:01.823Z,0.00
2023-02-01T05:08:01.759Z,0.00
2023-02-01T05:09:01.776Z,0.00
2023-02-01T05:10:01.807Z,0.00
2023-02-01T05:11:01.729Z,0.00
2023-02-01T05:12:01.790Z,0.00
2023-02-01T05:13:01.696Z,0.00
2023-02-01T05:14:02.607Z,0.00
2023-02-01T05:15:02.746Z,0.00
2023-02-01T05:16:01.791Z,0.00
2023-02-01T05:17:01.753Z,0.00
2023-02-01T05:18:02.705Z,0.00
2023-02-01T05:19:01.665Z,0.00
2023-02-01T05:20:01.681Z,0.00
2023-02-01T05:21:01.719Z,0.00
2023-02-01T05:22:01.715Z,0.00
2023-02-01T05:23:01.658Z,0.00
2023-02-01T05:24:01.699Z,0.00
2023-02-01T05:25:01.726Z,0.00
2023-02-01T05:26:01.650Z,0.00
2023-02-01T05:27:01.673Z,0.00
2023-02-01T05:28:01.629Z,0.00
2023-02-01T05:29:01.628Z,0.00
2023-02-01T05:30:01.663Z,0.00
2023-02-01T05:31:01.652Z,0.00
2023-02-01T05:32:19.352Z,0.00
2023-02-01T05:33:03.658Z,0.00
2023-02-01T05:34:01.586Z,0.00
2023-02-01T05:35:01.624Z,0.00
2023-02-01T05:36:01.751Z,0.00
2023-02-01T05:37:01.560Z,0.00
2023-02-01T05:38:01.561Z,0.00
2023-02-01T05:39:01.570Z,0.00
2023-02-01T05:40:01.593Z,0.00
2023-02-01T05:41:01.572Z,0.00
2023-02-01T05:42:01.550Z,0.00
2023-02-01T05:43:01.539Z,0.00
2023-02-01T05:44:01.562Z,0.00
2023-02-01T05:45:01.612Z,0.00
2023-02-01T05:46:01.555Z,0.00
2023-02-01T05:47:01.519Z,0.00
2023-02-01T05:48:01.527Z,0.00
2023-02-01T05:49:01.530Z,0.00
2023-02-01T05:50:01.524Z,0.00
2023-02-01T05:51:01.537Z,0.00
2023-02-01T05:52:01.517Z,0.00
2023-02-01T05:53:01.458Z,0.00
2023-02-01T05:54:01.552Z,0.00
2023-02-01T05:55:01.470Z,0.00
2023-02-01T05:56:01.473Z,0.00
2023-02-01T05:57:01.449Z,0.00
2023-02-01T05:58:01.475Z,0.00
2023-02-01T05:59:02.245Z,0.00
2023-02-01T06:00:01.459Z,0.00
2023-02-01T06:01:01.442Z,0.00
2023-02-01T06:02:01.387Z,0.00
2023-02-01T06:03:01.455Z,0.00
2023-02-01T06:04:01.401Z,0.00
2023-02-01T06:05:01.484Z,0.00
2023-02-01T06:06:01.392Z,0.00
2023-02-01T06:07:01.377Z,0.00
2023-02-01T06:08:01.357Z,0.00
2023-02-01T06:09:01.413Z,0.00
2023-02-01T06:10:01.362Z,0.00
2023-02-01T06:11:01.380Z,0.00
2023-02-01T06:12:01.338Z,0.00
2023-02-01T06:13:01.309Z,0.00
2023-02-01T06:14:01.374Z,0.00
2023-02-01T06:15:01.337Z,0.00
2023-02-01T06:16:01.325Z,0.00
2023-02-01T06:17:01.304Z,0.00
2023-02-01T06:18:01.326Z,0.00
2023-02-01T06:19:01.292Z,0.00
2023-02-01T06:20:01.306Z,0.00
2023-02-01T06:21:01.283Z,0.00
2023-02-01T06:22:01.297Z,0.00
2023-02-01T06:23:01.280Z,0.00
2023-02-01T06:24:01.254Z,0.00
2023-02-01T06:25:01.330Z,0.00
2023-02-01T06:26:01.232Z,0.00
2023-02-01T06:27:01.253Z,0.00
2023-02-01T06:28:01.338Z,0.00
2023-02-01T06:29:01.281Z,0.00
2023-02-01T06:30:01.457Z,0.00
2023-02-01T06:31:01.286Z,0.00
2023-02-01T06:32:01.293Z,0.00
2023-02-01T06:33:01.207Z,0.00
2023-02-01T06:34:01.226Z,0.00
2023-02-01T06:35:01.239Z,0.00
2023-02-01T06:36:01.210Z,0.00
2023-02-01T06:37:01.163Z,0.00
2023-02-01T06:38:01.192Z,0.00
2023-02-01T06:39:01.281Z,0.00
2023-02-01T06:40:01.192Z,0.00
2023-02-01T06:41:01.189Z,0.00
2023-02-01T06:42:01.138Z,0.00
2023-02-01T06:43:01.157Z,0.00
2023-02-01T06:44:01.140Z,0.00
2023-02-01T06:45:01.197Z,0.00
2023-02-01T06:46:01.111Z,0.00
2023-02-01T06:47:01.192Z,0.00
2023-02-01T06:48:01.124Z,0.00
2023-02-01T06:49:01.075Z,0.00
2023-02-01T06:50:02.119Z,0.00
2023-02-01T06:51:01.089Z,0.00
2023-02-01T06:52:01.085Z,0.00
2023-02-01T06:53:01.196Z,0.00
2023-02-01T06:54:01.064Z,0.00
2023-02-01T06:55:01.043Z,0.00
2023-02-01T06:56:01.067Z,0.00
2023-02-01T06:57:01.067Z,0.00
2023-02-01T06:58:01.036Z,0.00
2023-02-01T06:59:01.071Z,0.00
2023-02-01T07:00:01.040Z,0.00
2023-02-01T07:01:01.166Z,0.00
2023-02-01T07:02:01.097Z,0.00
2023-02-01T07:03:01.002Z,0.00
2023-02-01T07:04:00.978Z,0.00
2023-02-01T07:05:02.046Z,0.00
2023-02-01T07:06:00.995Z,0.00
2023-02-01T07:07:01.019Z,0.00
2023-02-01T07:08:01.044Z,0.00
2023-02-01T07:09:01.007Z,0.00
2023-02-01T07:10:00.949Z,0.00
2023-02-01T07:11:01.001Z,0.00
2023-02-01T07:12:00.990Z,0.00
2023-02-01T07:13:00.982Z,0.00
2023-02-01T07:14:00.920Z,0.00
2023-02-01T07:15:00.922Z,0.00
2023-02-01T07:16:01.020Z,0.00
2023-02-01T07:17:00.921Z,0.00
2023-02-01T07:18:01.147Z,0.00
2023-02-01T07:19:00.937Z,0.00
2023-02-01T07:20:00.932Z,0.00
2023-02-01T07:21:00.926Z,0.00
2023-02-01T07:22:00.935Z,0.00
2023-02-01T07:23:01.032Z,0.00
2023-02-01T07:24:00.884Z,0.00
2023-02-01T07:25:00.878Z,0.00
2023-02-01T07:26:00.893Z,0.00
2023-02-01T07:27:00.860Z,0.00
2023-02-01T07:28:00.911Z,0.00
2023-02-01T07:29:00.884Z,0.00
2023-02-01T07:30:01.547Z,0.00
2023-02-01T07:31:01.463Z,0.00
2023-02-01T07:32:00.902Z,0.00
2023-02-01T07:33:00.842Z,0.00
2023-02-01T07:34:00.816Z,0.00
2023-02-01T07:35:00.817Z,0.00
2023-02-01T07:36:00.822Z,0.00
2023-02-01T07:37:01.772Z,5.62
2023-02-01T07:38:00.853Z,5.62
2023-02-01T07:39:01.755Z,5.62
2023-02-01T07:40:00.808Z,5.62
2023-02-01T07:41:00.817Z,5.62
2023-02-01T07:42:00.761Z,5.62
2023-02-01T07:43:00.744Z,5.62
2023-02-01T07:44:00.750Z,5.62
2023-02-01T07:45:11.222Z,5.62
2023-02-01T07:46:02.785Z,5.62
2023-02-01T07:47:00.728Z,5.62
2023-02-01T07:48:00.730Z,5.62
2023-02-01T07:49:00.737Z,5.62
2023-02-01T07:50:00.704Z,5.62
2023-02-01T07:51:00.739Z,5.62
2023-02-01T07:52:00.686Z,0.00
2023-02-01T07:53:00.656Z,0.00
2023-02-01T07:54:00.683Z,0.00
2023-02-01T07:55:00.678Z,0.00
2023-02-01T07:56:00.712Z,0.00
2023-02-01T07:57:00.731Z,0.00
2023-02-01T07:58:01.653Z,5.62
2023-02-01T07:59:00.631Z,5.62
2023-02-01T08:00:00.649Z,5.62
2023-02-01T08:01:01.684Z,5.62
2023-02-01T08:02:00.675Z,5.62
2023-02-01T08:03:00.617Z,5.62
2023-02-01T08:04:00.605Z,5.62
2023-02-01T08:05:00.630Z,5.62
2023-02-01T08:06:00.596Z,5.62
2023-02-01T08:07:00.597Z,5.62
2023-02-01T08:08:00.607Z,5.62
2023-02-01T08:09:00.585Z,5.62
2023-02-01T08:10:00.622Z,5.62
2023-02-01T08:11:00.557Z,5.62
2023-02-01T08:12:00.600Z,5.62
2023-02-01T08:13:00.601Z,5.62
2023-02-01T08:14:00.540Z,5.62
2023-02-01T08:15:00.539Z,5.62
2023-02-01T08:16:00.511Z,5.62
2023-02-01T08:17:00.516Z,5.62
2023-02-01T08:18:00.547Z,5.62
2023-02-01T08:19:00.544Z,5.62
2023-02-01T08:20:00.515Z,5.62
2023-02-01T08:21:00.497Z,5.62
2023-02-01T08:22:00.494Z,5.62
2023-02-01T08:23:00.492Z,5.62
2023-02-01T08:24:00.524Z,11.25
2023-02-01T08:25:00.487Z,11.25
2023-02-01T08:26:00.472Z,11.25
2023-02-01T08:27:00.433Z,11.25
2023-02-01T08:28:00.477Z,11.25
2023-02-01T08:29:00.482Z,11.25
2023-02-01T08:30:00.456Z,16.88
2023-02-01T08:31:00.471Z,16.88
2023-02-01T08:32:00.452Z,16.88
2023-02-01T08:33:00.420Z,16.88
2023-02-01T08:34:00.425Z,16.88
2023-02-01T08:35:00.432Z,16.88
2023-02-01T08:36:00.388Z,16.88
2023-02-01T08:37:00.412Z,16.88
2023-02-01T08:38:00.411Z,16.88
2023-02-01T08:39:00.413Z,16.88
2023-02-01T08:40:00.439Z,16.88
2023-02-01T08:41:00.374Z,11.25
2023-02-01T08:42:00.364Z,11.25
2023-02-01T08:43:00.351Z,16.88
2023-02-01T08:44:00.406Z,16.88
2023-02-01T08:45:00.372Z,16.88
2023-02-01T08:46:00.348Z,22.50
2023-02-01T08:47:00.345Z,16.88
2023-02-01T08:48:00.347Z,16.88
2023-02-01T08:49:00.306Z,11.25
2023-02-01T08:50:00.378Z,11.25
2023-02-01T08:51:00.298Z,11.25
2023-02-01T08:52:04.125Z,11.25
2023-02-01T08:53:02.282Z,16.88
2023-02-01T08:54:00.301Z,11.25
2023-02-01T08:55:01.296Z,11.25
2023-02-01T08:56:00.282Z,11.25
2023-02-01T08:57:00.381Z,11.25
2023-02-01T08:58:00.246Z,16.88
2023-02-01T08:59:00.273Z,16.88
2023-02-01T09:00:00.270Z,16.88
2023-02-01T09:01:00.299Z,16.88
2023-02-01T09:02:00.221Z,16.88
2023-02-01T09:03:00.230Z,16.88
2023-02-01T09:04:00.388Z,16.88
2023-02-01T09:05:00.886Z,16.88
2023-02-01T09:06:00.422Z,16.88
2023-02-01T09:07:00.218Z,16.88
2023-02-01T09:08:00.181Z,16.88
2023-02-01T09:09:00.207Z,16.88
2023-02-01T09:10:00.181Z,22.50
2023-02-01T09:11:02.965Z,22.50
2023-02-01T09:12:01.165Z,22.50
2023-02-01T09:13:00.228Z,22.50
2023-02-01T09:14:00.170Z,22.50
2023-02-01T09:15:00.331Z,22.50
2023-02-01T09:16:00.225Z,22.50
2023-02-01T09:17:00.233Z,22.50
2023-02-01T09:18:00.184Z,22.50
2023-02-01T09:19:23.911Z,22.50
2023-02-01T09:20:02.109Z,22.50
2023-02-01T09:21:00.124Z,22.50
2023-02-01T09:22:00.182Z,22.50
2023-02-01T09:23:00.109Z,22.50
2023-02-01T09:24:00.137Z,28.12
2023-02-01T09:25:00.115Z,22.50
2023-02-01T09:26:00.053Z,22.50
2023-02-01T09:27:00.101Z,28.12
2023-02-01T09:28:00.064Z,28.12
2023-02-01T09:29:00.161Z,28.12
2023-02-01T09:30:00.204Z,28.12
2023-02-01T09:31:00.122Z,39.38
2023-02-01T09:32:04.017Z,56.25
2023-02-01T09:33:02.037Z,56.25
2023-02-01T09:34:00.041Z,61.88
2023-02-01T09:35:00.041Z,50.62
2023-02-01T09:36:00.013Z,50.62
2023-02-01T09:37:00.033Z,50.62
2023-02-01T09:38:00.033Z,50.62
2023-02-01T09:38:59.988Z,67.50
2023-02-01T09:40:00.049Z,73.12
2023-02-01T09:40:59.957Z,61.88
2023-02-01T09:41:59.957Z,56.25
2023-02-01T09:42:59.940Z,45.00
2023-02-01T09:43:59.943Z,28.12
2023-02-01T09:45:00.028Z,28.12
2023-02-01T09:46:00.073Z,33.75
2023-02-01T09:46:59.944Z,28.12
2023-02-01T09:47:59.965Z,28.12
2023-02-01T09:48:59.924Z,22.50
2023-02-01T09:49:59.930Z,28.12
2023-02-01T09:50:59.948Z,28.12
2023-02-01T09:51:59.891Z,28.12
2023-02-01T09:52:59.921Z,22.50
2023-02-01T09:53:59.904Z,22.50
2023-02-01T09:54:59.899Z,28.12
2023-02-01T09:55:59.920Z,28.12
2023-02-01T09:56:59.869Z,22.50
2023-02-01T09:57:59.871Z,28.12
2023-02-01T09:58:59.855Z,28.12
2023-02-01T09:59:59.873Z,28.12
2023-02-01T10:00:59.842Z,22.50
2023-02-01T10:01:59.922Z,16.88
2023-02-01T10:02:59.829Z,22.50
2023-02-01T10:03:59.831Z,22.50
2023-02-01T10:04:59.813Z,28.12
2023-02-01T10:05:59.848Z,28.12
2023-02-01T10:06:59.839Z,33.75
2023-02-01T10:07:59.794Z,28.12
2023-02-01T10:08:59.792Z,28.12
2023-02-01T10:09:59.777Z,28.12
2023-02-01T10:11:00.014Z,28.12
2023-02-01T10:11:59.770Z,33.75
2023-02-01T10:12:59.884Z,28.12
2023-02-01T10:13:59.752Z,28.12
2023-02-01T10:14:59.739Z,28.12
2023-02-01T10:15:59.860Z,33.75
2023-02-01T10:16:59.818Z,45.00
2023-02-01T10:17:59.751Z,28.12
2023-02-01T10:18:59.741Z,28.12
2023-02-01T10:19:59.717Z,28.12
2023-02-01T10:20:59.717Z,22.50
2023-02-01T10:21:59.747Z,22.50
2023-02-01T10:23:19.547Z,28.12
2023-02-01T10:24:06.260Z,22.50
2023-02-01T10:25:01.697Z,28.12
2023-02-01T10:25:59.677Z,45.00
2023-02-01T10:26:59.692Z,33.75
2023-02-01T10:27:59.690Z,28.12
2023-02-01T10:28:59.750Z,39.38
2023-02-01T10:29:59.674Z,39.38
2023-02-01T10:30:59.904Z,33.75
2023-02-01T10:31:59.665Z,45.00
2023-02-01T10:32:59.660Z,39.38
2023-02-01T10:33:59.757Z,33.75
2023-02-01T10:34:59.642Z,33.75
2023-02-01T10:35:59.634Z,28.12
2023-02-01T10:36:59.610Z,28.12
2023-02-01T10:37:59.587Z,28.12
2023-02-01T10:38:59.644Z,45.00
2023-02-01T10:39:59.605Z,33.75
2023-02-01T10:40:59.593Z,28.12
2023-02-01T10:41:59.638Z,28.12
2023-02-01T10:42:59.580Z,28.12
2023-02-01T10:43:59.575Z,33.75
2023-02-01T10:44:59.599Z,39.38
2023-02-01T10:45:59.712Z,39.38
2023-02-01T10:46:59.525Z,45.00
2023-02-01T10:47:59.562Z,84.38
2023-02-01T10:48:59.520Z,56.25
2023-02-01T10:49:59.571Z,50.62
2023-02-01T10:50:59.554Z,61.88
2023-02-01T10:51:59.561Z,73.12
2023-02-01T10:52:59.544Z,61.88
2023-02-01T10:53:59.477Z,56.25
2023-02-01T10:54:59.503Z,39.38
2023-02-01T10:55:59.525Z,56.25
2023-02-01T10:57:00.609Z,90.00
2023-02-01T10:58:00.475Z,78.75
2023-02-01T10:58:59.463Z,56.25
2023-02-01T10:59:59.462Z,67.50
2023-02-01T11:00:59.522Z,56.25
2023-02-01T11:01:59.864Z,56.25
2023-02-01T11:03:00.479Z,56.25
2023-02-01T11:04:00.480Z,39.38
2023-02-01T11:04:59.509Z,39.38
2023-02-01T11:05:59.447Z,28.12
2023-02-01T11:06:59.485Z,28.12
2023-02-01T11:07:59.426Z,28.12
2023-02-01T11:08:59.444Z,28.12
2023-02-01T11:09:59.407Z,28.12
2023-02-01T11:10:59.408Z,28.12
2023-02-01T11:11:59.447Z,28.12
2023-02-01T11:12:59.419Z,28.12
2023-02-01T11:13:59.426Z,28.12
2023-02-01T11:14:59.423Z,28.12
2023-02-01T11:15:59.451Z,28.12
2023-02-01T11:16:59.401Z,33.75
2023-02-01T11:17:59.424Z,39.38
2023-02-01T11:18:59.369Z,45.00
2023-02-01T11:19:59.363Z,33.75
2023-02-01T11:20:59.419Z,39.38
2023-02-01T11:21:59.355Z,39.38
2023-02-01T11:22:59.364Z,33.75
2023-02-01T11:23:59.317Z,33.75
2023-02-01T11:24:59.374Z,28.12
2023-02-01T11:25:59.334Z,28.12
2023-02-01T11:26:59.340Z,28.12
2023-02-01T11:27:59.321Z,28.12
2023-02-01T11:28:59.268Z,28.12
2023-02-01T11:29:59.300Z,28.12
2023-02-01T11:30:59.427Z,28.12
2023-02-01T11:31:59.267Z,28.12
2023-02-01T11:32:59.303Z,28.12
2023-02-01T11:33:59.302Z,28.12
2023-02-01T11:34:59.269Z,28.12
2023-02-01T11:35:59.491Z,33.75
2023-02-01T11:36:59.263Z,39.38
2023-02-01T11:37:59.257Z,50.62
2023-02-01T11:38:59.267Z,39.38
2023-02-01T11:39:59.260Z,56.25
2023-02-01T11:40:59.258Z,56.25
2023-02-01T11:41:59.216Z,50.62
2023-02-01T11:42:59.241Z,45.00
2023-02-01T11:43:59.201Z,45.00
2023-02-01T11:44:59.241Z,61.88
2023-02-01T11:45:59.249Z,56.25
2023-02-01T11:46:59.210Z,101.25
2023-02-01T11:47:59.221Z,56.25
2023-02-01T11:48:59.190Z,56.25
2023-02-01T11:49:59.228Z,50.62
2023-02-01T11:50:59.182Z,45.00
2023-02-01T11:51:59.212Z,39.38
2023-02-01T11:52:59.241Z,39.38
2023-02-01T11:53:59.199Z,33.75
2023-02-01T11:54:59.144Z,28.12
2023-02-01T11:55:59.189Z,28.12
2023-02-01T11:56:59.234Z,33.75
2023-02-01T11:57:59.122Z,33.75
2023-02-01T11:58:59.154Z,45.00
2023-02-01T11:59:59.134Z,50.62
2023-02-01T12:00:59.141Z,50.62
2023-02-01T12:01:59.100Z,39.38
2023-02-01T12:02:59.249Z,39.38
2023-02-01T12:03:59.125Z,39.38
2023-02-01T12:04:59.104Z,33.75
2023-02-01T12:05:59.174Z,33.75
2023-02-01T12:06:59.133Z,28.12
2023-02-01T12:07:59.119Z,33.75
2023-02-01T12:08:59.104Z,28.12
2023-02-01T12:09:59.059Z,28.12
2023-02-01T12:10:59.059Z,28.12
2023-02-01T12:11:59.065Z,28.12
2023-02-01T12:12:59.093Z,28.12
2023-02-01T12:13:59.097Z,22.50
2023-02-01T12:14:59.065Z,22.50
2023-02-01T12:15:59.063Z,22.50
2023-02-01T12:16:59.046Z,22.50
2023-02-01T12:17:59.730Z,22.50
2023-02-01T12:18:59.060Z,22.50
2023-02-01T12:19:59.008Z,22.50
2023-02-01T12:20:59.095Z,22.50
2023-02-01T12:21:59.648Z,22.50
2023-02-01T12:22:59.001Z,16.88
2023-02-01T12:23:59.140Z,16.88
2023-02-01T12:24:59.024Z,16.88
2023-02-01T12:25:59.025Z,16.88
2023-02-01T12:26:59.039Z,16.88
2023-02-01T12:27:58.976Z,16.88
2023-02-01T12:28:58.966Z,16.88
2023-02-01T12:29:58.970Z,16.88
2023-02-01T12:30:59.054Z,16.88
2023-02-01T12:31:58.979Z,16.88
2023-02-01T12:32:58.950Z,22.50
2023-02-01T12:33:58.941Z,22.50
2023-02-01T12:34:58.950Z,22.50
2023-02-01T12:35:58.964Z,22.50
2023-02-01T12:36:58.918Z,22.50
2023-02-01T12:37:58.970Z,22.50
2023-02-01T12:38:58.890Z,22.50
2023-02-01T12:39:58.895Z,28.12
2023-02-01T12:40:58.923Z,28.12
2023-02-01T12:41:58.897Z,33.75
2023-02-01T12:42:58.899Z,39.38
2023-02-01T12:43:58.873Z,50.62
2023-02-01T12:44:58.865Z,39.38
2023-02-01T12:45:59.939Z,90.00
2023-02-01T12:46:58.907Z,67.50
2023-02-01T12:47:58.850Z,90.00
2023-02-01T12:48:58.848Z,84.38
2023-02-01T12:49:58.904Z,84.38
2023-02-01T12:50:58.854Z,118.12
2023-02-01T12:51:58.878Z,106.88
2023-02-01T12:52:58.842Z,118.12
2023-02-01T12:53:58.875Z,106.88
2023-02-01T12:54:58.827Z,101.25
2023-02-01T12:55:58.822Z,67.50
2023-02-01T12:56:58.825Z,106.88
2023-02-01T12:57:58.798Z,90.00
2023-02-01T12:58:58.792Z,90.00
2023-02-01T12:59:58.872Z,90.00
2023-02-01T13:00:58.835Z,95.62
2023-02-01T13:01:58.811Z,90.00
2023-02-01T13:02:58.759Z,73.12
2023-02-01T13:03:58.782Z,56.25
2023-02-01T13:04:58.752Z,61.88
2023-02-01T13:05:58.775Z,56.25
2023-02-01T13:06:58.764Z,90.00
2023-02-01T13:07:58.742Z,112.50